Terminal Aerodrome Forecast
Issued by NWS

Home | Current Version | Previous Version | Text Only | Print | Product List | Glossary On
Versions: 1 2 3 4 5 6 7 8 9 10 11 12 13 14
000
FTAK31 PAFA 251720
TAFAGA
TAF
PAGA 251720Z 2518/2618 VRB03KT P6SM OVC045
     FM252200 20007KT 6SM -RA BR BKN012 OVC025
     FM260600 25007KT 6SM -RA BR BKN012 OVC025=

USA.gov is the U.S. government's official web portal to all federal, state and local government web resources and services.